sensor_id;sensor_type;location;lat;lon;timestamp;P1;durP1;ratioP1;P2;durP2;ratioP2
60006;SDS011;45863;50.336;3.536;2022-09-28T00:00:22;10.32;;;2.55;;
60006;SDS011;45863;50.336;3.536;2022-09-28T00:02:47;11.00;;;2.88;;
60006;SDS011;45863;50.336;3.536;2022-09-28T00:05:13;9.40;;;2.40;;
60006;SDS011;45863;50.336;3.536;2022-09-28T00:07:38;10.48;;;2.72;;
60006;SDS011;45863;50.336;3.536;2022-09-28T00:10:04;8.80;;;2.50;;
60006;SDS011;45863;50.336;3.536;2022-09-28T00:12:29;11.07;;;2.97;;
60006;SDS011;45863;50.336;3.536;2022-09-28T00:14:55;9.70;;;3.15;;
60006;SDS011;45863;50.336;3.536;2022-09-28T00:17:20;8.93;;;2.97;;
60006;SDS011;45863;50.336;3.536;2022-09-28T00:19:47;13.95;;;3.55;;
60006;SDS011;45863;50.336;3.536;2022-09-28T00:22:13;9.48;;;3.22;;
60006;SDS011;45863;50.336;3.536;2022-09-28T00:24:38;11.95;;;2.90;;
60006;SDS011;45863;50.336;3.536;2022-09-28T00:27:05;14.40;;;3.88;;
60006;SDS011;45863;50.336;3.536;2022-09-28T00:29:31;12.80;;;3.40;;
60006;SDS011;45863;50.336;3.536;2022-09-28T00:32:01;11.73;;;3.70;;
60006;SDS011;45863;50.336;3.536;2022-09-28T00:34:27;10.95;;;3.17;;
60006;SDS011;45863;50.336;3.536;2022-09-28T00:36:55;10.68;;;3.30;;
60006;SDS011;45863;50.336;3.536;2022-09-28T00:39:20;9.48;;;3.10;;
60006;SDS011;45863;50.336;3.536;2022-09-28T00:41:46;12.95;;;2.97;;
60006;SDS011;45863;50.336;3.536;2022-09-28T00:46:57;10.85;;;3.38;;
60006;SDS011;45863;50.336;3.536;2022-09-28T00:51:57;9.00;;;3.45;;
60006;SDS011;45863;50.336;3.536;2022-09-28T00:54:23;9.43;;;3.80;;
60006;SDS011;45863;50.336;3.536;2022-09-28T00:56:48;11.68;;;3.60;;
60006;SDS011;45863;50.336;3.536;2022-09-28T00:59:13;10.50;;;3.43;;
60006;SDS011;45863;50.336;3.536;2022-09-28T01:01:39;11.57;;;3.72;;
60006;SDS011;45863;50.336;3.536;2022-09-28T01:04:05;12.05;;;3.45;;
60006;SDS011;45863;50.336;3.536;2022-09-28T01:06:31;13.27;;;3.63;;
60006;SDS011;45863;50.336;3.536;2022-09-28T01:08:57;12.45;;;3.63;;
60006;SDS011;45863;50.336;3.536;2022-09-28T01:11:24;11.10;;;4.00;;
60006;SDS011;45863;50.336;3.536;2022-09-28T01:13:50;8.52;;;3.40;;
60006;SDS011;45863;50.336;3.536;2022-09-28T01:21:35;11.27;;;3.50;;
60006;SDS011;45863;50.336;3.536;2022-09-28T01:26:40;13.10;;;3.92;;
60006;SDS011;45863;50.336;3.536;2022-09-28T01:31:35;9.10;;;3.60;;
60006;SDS011;45863;50.336;3.536;2022-09-28T01:34:09;13.93;;;3.90;;
60006;SDS011;45863;50.336;3.536;2022-09-28T01:36:37;19.60;;;4.03;;
60006;SDS011;45863;50.336;3.536;2022-09-28T01:39:05;11.30;;;3.53;;
60006;SDS011;45863;50.336;3.536;2022-09-28T01:41:33;15.70;;;3.20;;
60006;SDS011;45863;50.336;3.536;2022-09-28T01:44:00;15.05;;;3.50;;
60006;SDS011;45863;50.336;3.536;2022-09-28T01:46:31;16.13;;;3.90;;
60006;SDS011;45863;50.336;3.536;2022-09-28T01:48:58;8.25;;;2.90;;
60006;SDS011;45863;50.336;3.536;2022-09-28T01:53:59;8.10;;;3.30;;
60006;SDS011;45863;50.336;3.536;2022-09-28T01:56:31;10.82;;;3.20;;
60006;SDS011;45863;50.336;3.536;2022-09-28T01:59:06;11.63;;;3.45;;
60006;SDS011;45863;50.336;3.536;2022-09-28T02:01:35;16.08;;;3.92;;
60006;SDS011;45863;50.336;3.536;2022-09-28T02:04:03;8.68;;;3.33;;
60006;SDS011;45863;50.336;3.536;2022-09-28T02:06:32;12.20;;;3.50;;
60006;SDS011;45863;50.336;3.536;2022-09-28T02:09:04;14.93;;;3.67;;
60006;SDS011;45863;50.336;3.536;2022-09-28T02:11:32;9.80;;;3.15;;
60006;SDS011;45863;50.336;3.536;2022-09-28T02:14:04;11.93;;;2.92;;
60006;SDS011;45863;50.336;3.536;2022-09-28T02:16:38;12.60;;;3.53;;
60006;SDS011;45863;50.336;3.536;2022-09-28T02:19:10;8.98;;;2.88;;
60006;SDS011;45863;50.336;3.536;2022-09-28T02:21:58;10.20;;;3.05;;
60006;SDS011;45863;50.336;3.536;2022-09-28T02:26:48;10.20;;;2.65;;
60006;SDS011;45863;50.336;3.536;2022-09-28T02:29:13;14.52;;;3.67;;
60006;SDS011;45863;50.336;3.536;2022-09-28T02:31:38;14.20;;;3.58;;
60006;SDS011;45863;50.336;3.536;2022-09-28T02:34:04;12.65;;;3.15;;
60006;SDS011;45863;50.336;3.536;2022-09-28T02:36:29;15.83;;;3.20;;
60006;SDS011;45863;50.336;3.536;2022-09-28T02:38:55;9.75;;;3.50;;
60006;SDS011;45863;50.336;3.536;2022-09-28T02:54:57;14.27;;;2.90;;
60006;SDS011;45863;50.336;3.536;2022-09-28T03:02:45;13.77;;;3.08;;
60006;SDS011;45863;50.336;3.536;2022-09-28T03:10:32;13.93;;;3.25;;
60006;SDS011;45863;50.336;3.536;2022-09-28T03:12:57;14.82;;;3.70;;
60006;SDS011;45863;50.336;3.536;2022-09-28T03:15:27;14.63;;;4.15;;
60006;SDS011;45863;50.336;3.536;2022-09-28T03:17:52;13.45;;;3.20;;
60006;SDS011;45863;50.336;3.536;2022-09-28T03:20:18;12.63;;;3.63;;
60006;SDS011;45863;50.336;3.536;2022-09-28T03:22:43;17.15;;;3.67;;
60006;SDS011;45863;50.336;3.536;2022-09-28T03:25:08;15.77;;;4.13;;
60006;SDS011;45863;50.336;3.536;2022-09-28T03:27:34;11.85;;;3.28;;
60006;SDS011;45863;50.336;3.536;2022-09-28T03:29:59;12.32;;;3.40;;
60006;SDS011;45863;50.336;3.536;2022-09-28T03:32:24;13.85;;;3.20;;
60006;SDS011;45863;50.336;3.536;2022-09-28T03:34:50;15.18;;;3.40;;
60006;SDS011;45863;50.336;3.536;2022-09-28T03:37:15;13.03;;;3.43;;
60006;SDS011;45863;50.336;3.536;2022-09-28T03:39:40;11.30;;;3.83;;
60006;SDS011;45863;50.336;3.536;2022-09-28T03:42:05;13.65;;;3.05;;
60006;SDS011;45863;50.336;3.536;2022-09-28T03:44:31;10.27;;;3.00;;
60006;SDS011;45863;50.336;3.536;2022-09-28T03:46:56;10.18;;;3.90;;
60006;SDS011;45863;50.336;3.536;2022-09-28T03:49:21;10.60;;;3.13;;
60006;SDS011;45863;50.336;3.536;2022-09-28T03:51:46;16.15;;;3.67;;
60006;SDS011;45863;50.336;3.536;2022-09-28T03:54:12;12.57;;;3.90;;
60006;SDS011;45863;50.336;3.536;2022-09-28T03:56:37;17.38;;;4.15;;
60006;SDS011;45863;50.336;3.536;2022-09-28T03:59:02;12.57;;;3.85;;
60006;SDS011;45863;50.336;3.536;2022-09-28T04:01:28;13.10;;;3.63;;
60006;SDS011;45863;50.336;3.536;2022-09-28T04:03:53;12.68;;;3.90;;
60006;SDS011;45863;50.336;3.536;2022-09-28T04:06:19;11.38;;;4.50;;
60006;SDS011;45863;50.336;3.536;2022-09-28T04:08:45;17.73;;;3.88;;
60006;SDS011;45863;50.336;3.536;2022-09-28T04:11:10;15.20;;;4.10;;
60006;SDS011;45863;50.336;3.536;2022-09-28T04:13:35;8.75;;;3.65;;
60006;SDS011;45863;50.336;3.536;2022-09-28T04:16:01;12.93;;;4.05;;
60006;SDS011;45863;50.336;3.536;2022-09-28T04:18:26;12.55;;;3.78;;
60006;SDS011;45863;50.336;3.536;2022-09-28T04:21:11;16.30;;;4.05;;
60006;SDS011;45863;50.336;3.536;2022-09-28T04:23:37;14.23;;;3.85;;
60006;SDS011;45863;50.336;3.536;2022-09-28T04:26:03;17.20;;;4.97;;
60006;SDS011;45863;50.336;3.536;2022-09-28T04:28:29;11.20;;;3.58;;
60006;SDS011;45863;50.336;3.536;2022-09-28T04:31:13;17.02;;;3.90;;
60006;SDS011;45863;50.336;3.536;2022-09-28T04:33:40;14.65;;;3.70;;
60006;SDS011;45863;50.336;3.536;2022-09-28T04:36:05;16.07;;;4.80;;
60006;SDS011;45863;50.336;3.536;2022-09-28T04:38:31;14.75;;;4.22;;
60006;SDS011;45863;50.336;3.536;2022-09-28T04:40:57;16.48;;;4.43;;
60006;SDS011;45863;50.336;3.536;2022-09-28T04:43:22;13.67;;;5.20;;
60006;SDS011;45863;50.336;3.536;2022-09-28T04:45:47;17.73;;;6.23;;
60006;SDS011;45863;50.336;3.536;2022-09-28T04:48:15;26.10;;;9.90;;
60006;SDS011;45863;50.336;3.536;2022-09-28T04:50:41;22.77;;;5.20;;
60006;SDS011;45863;50.336;3.536;2022-09-28T04:53:06;18.25;;;6.30;;
60006;SDS011;45863;50.336;3.536;2022-09-28T04:55:31;12.25;;;4.97;;
60006;SDS011;45863;50.336;3.536;2022-09-28T04:57:57;20.65;;;5.75;;
60006;SDS011;45863;50.336;3.536;2022-09-28T05:00:29;12.73;;;5.60;;
60006;SDS011;45863;50.336;3.536;2022-09-28T05:02:57;46.92;;;34.38;;
60006;SDS011;45863;50.336;3.536;2022-09-28T05:05:22;24.37;;;6.47;;
60006;SDS011;45863;50.336;3.536;2022-09-28T05:07:47;16.75;;;5.82;;
60006;SDS011;45863;50.336;3.536;2022-09-28T05:10:12;16.17;;;5.55;;
60006;SDS011;45863;50.336;3.536;2022-09-28T05:12:38;14.83;;;5.43;;
60006;SDS011;45863;50.336;3.536;2022-09-28T05:15:03;15.38;;;5.07;;
60006;SDS011;45863;50.336;3.536;2022-09-28T05:17:28;20.35;;;4.85;;
60006;SDS011;45863;50.336;3.536;2022-09-28T05:19:54;13.07;;;4.47;;
60006;SDS011;45863;50.336;3.536;2022-09-28T05:22:19;11.10;;;4.63;;
60006;SDS011;45863;50.336;3.536;2022-09-28T05:24:44;17.23;;;5.50;;
60006;SDS011;45863;50.336;3.536;2022-09-28T05:27:10;21.42;;;6.22;;
60006;SDS011;45863;50.336;3.536;2022-09-28T05:29:35;25.15;;;5.57;;
60006;SDS011;45863;50.336;3.536;2022-09-28T05:32:01;19.77;;;5.20;;
60006;SDS011;45863;50.336;3.536;2022-09-28T05:34:26;15.95;;;5.00;;
60006;SDS011;45863;50.336;3.536;2022-09-28T05:36:51;14.15;;;4.88;;
60006;SDS011;45863;50.336;3.536;2022-09-28T05:39:16;16.07;;;6.33;;
60006;SDS011;45863;50.336;3.536;2022-09-28T05:41:41;17.47;;;6.03;;
60006;SDS011;45863;50.336;3.536;2022-09-28T05:44:07;20.05;;;6.93;;
60006;SDS011;45863;50.336;3.536;2022-09-28T05:46:32;22.60;;;8.90;;
60006;SDS011;45863;50.336;3.536;2022-09-28T05:48:57;25.83;;;10.15;;
60006;SDS011;45863;50.336;3.536;2022-09-28T05:51:24;28.83;;;8.10;;
60006;SDS011;45863;50.336;3.536;2022-09-28T05:53:49;22.58;;;6.93;;
60006;SDS011;45863;50.336;3.536;2022-09-28T05:56:15;23.73;;;8.43;;
60006;SDS011;45863;50.336;3.536;2022-09-28T05:58:40;23.23;;;7.10;;
60006;SDS011;45863;50.336;3.536;2022-09-28T06:01:05;18.67;;;6.55;;
60006;SDS011;45863;50.336;3.536;2022-09-28T06:03:30;13.70;;;6.07;;
60006;SDS011;45863;50.336;3.536;2022-09-28T06:05:55;18.73;;;6.93;;
60006;SDS011;45863;50.336;3.536;2022-09-28T06:08:23;15.63;;;5.80;;
60006;SDS011;45863;50.336;3.536;2022-09-28T06:10:49;12.55;;;5.43;;
60006;SDS011;45863;50.336;3.536;2022-09-28T06:13:14;18.93;;;6.00;;
60006;SDS011;45863;50.336;3.536;2022-09-28T06:15:40;21.65;;;6.93;;
60006;SDS011;45863;50.336;3.536;2022-09-28T06:18:08;18.75;;;7.32;;
60006;SDS011;45863;50.336;3.536;2022-09-28T06:20:35;18.10;;;6.85;;
60006;SDS011;45863;50.336;3.536;2022-09-28T06:23:00;18.67;;;6.97;;
60006;SDS011;45863;50.336;3.536;2022-09-28T06:25:26;23.67;;;7.35;;
60006;SDS011;45863;50.336;3.536;2022-09-28T06:27:55;19.02;;;6.55;;
60006;SDS011;45863;50.336;3.536;2022-09-28T06:30:20;21.05;;;7.30;;
60006;SDS011;45863;50.336;3.536;2022-09-28T06:32:45;18.08;;;6.85;;
60006;SDS011;45863;50.336;3.536;2022-09-28T06:35:11;15.27;;;6.70;;
60006;SDS011;45863;50.336;3.536;2022-09-28T06:37:39;18.90;;;6.47;;
60006;SDS011;45863;50.336;3.536;2022-09-28T06:40:04;16.75;;;7.38;;
60006;SDS011;45863;50.336;3.536;2022-09-28T06:42:30;19.52;;;6.65;;
60006;SDS011;45863;50.336;3.536;2022-09-28T06:44:55;17.80;;;6.00;;
60006;SDS011;45863;50.336;3.536;2022-09-28T06:47:20;20.08;;;6.15;;
60006;SDS011;45863;50.336;3.536;2022-09-28T06:49:46;21.40;;;6.27;;
60006;SDS011;45863;50.336;3.536;2022-09-28T06:52:19;15.68;;;6.20;;
60006;SDS011;45863;50.336;3.536;2022-09-28T06:54:45;22.65;;;7.63;;
60006;SDS011;45863;50.336;3.536;2022-09-28T06:57:10;16.67;;;5.85;;
60006;SDS011;45863;50.336;3.536;2022-09-28T06:59:35;19.67;;;6.73;;
60006;SDS011;45863;50.336;3.536;2022-09-28T07:02:00;17.58;;;6.18;;
60006;SDS011;45863;50.336;3.536;2022-09-28T07:04:25;16.80;;;6.57;;
60006;SDS011;45863;50.336;3.536;2022-09-28T07:06:51;19.50;;;6.35;;
60006;SDS011;45863;50.336;3.536;2022-09-28T07:09:16;19.05;;;6.35;;
60006;SDS011;45863;50.336;3.536;2022-09-28T07:11:41;20.33;;;7.47;;
60006;SDS011;45863;50.336;3.536;2022-09-28T07:14:08;18.48;;;5.93;;
60006;SDS011;45863;50.336;3.536;2022-09-28T07:16:35;18.95;;;6.20;;
60006;SDS011;45863;50.336;3.536;2022-09-28T07:19:00;16.20;;;6.45;;
60006;SDS011;45863;50.336;3.536;2022-09-28T07:21:25;16.73;;;5.72;;
60006;SDS011;45863;50.336;3.536;2022-09-28T07:23:50;15.10;;;6.07;;
60006;SDS011;45863;50.336;3.536;2022-09-28T07:26:17;19.40;;;6.25;;
60006;SDS011;45863;50.336;3.536;2022-09-28T07:28:43;15.27;;;5.68;;
60006;SDS011;45863;50.336;3.536;2022-09-28T07:31:08;21.75;;;5.63;;
60006;SDS011;45863;50.336;3.536;2022-09-28T07:33:34;15.98;;;6.25;;
60006;SDS011;45863;50.336;3.536;2022-09-28T07:36:00;12.35;;;4.70;;
60006;SDS011;45863;50.336;3.536;2022-09-28T07:38:30;21.92;;;5.57;;
60006;SDS011;45863;50.336;3.536;2022-09-28T07:40:55;16.13;;;5.50;;
60006;SDS011;45863;50.336;3.536;2022-09-28T07:43:35;16.92;;;6.07;;
60006;SDS011;45863;50.336;3.536;2022-09-28T07:46:03;18.23;;;5.88;;
60006;SDS011;45863;50.336;3.536;2022-09-28T07:48:29;20.02;;;6.40;;
60006;SDS011;45863;50.336;3.536;2022-09-28T07:51:01;16.90;;;5.75;;
60006;SDS011;45863;50.336;3.536;2022-09-28T07:53:27;16.40;;;5.97;;
60006;SDS011;45863;50.336;3.536;2022-09-28T07:55:55;21.55;;;6.65;;
60006;SDS011;45863;50.336;3.536;2022-09-28T07:58:20;17.58;;;6.03;;
60006;SDS011;45863;50.336;3.536;2022-09-28T08:00:46;15.52;;;5.60;;
60006;SDS011;45863;50.336;3.536;2022-09-28T08:03:13;16.70;;;5.70;;
60006;SDS011;45863;50.336;3.536;2022-09-28T08:05:38;15.52;;;5.55;;
60006;SDS011;45863;50.336;3.536;2022-09-28T08:08:05;21.83;;;7.05;;
60006;SDS011;45863;50.336;3.536;2022-09-28T08:10:30;17.40;;;6.15;;
60006;SDS011;45863;50.336;3.536;2022-09-28T08:12:56;17.60;;;5.60;;
60006;SDS011;45863;50.336;3.536;2022-09-28T08:15:21;14.38;;;4.97;;
60006;SDS011;45863;50.336;3.536;2022-09-28T08:17:47;16.15;;;4.40;;
60006;SDS011;45863;50.336;3.536;2022-09-28T08:20:12;16.90;;;4.85;;
60006;SDS011;45863;50.336;3.536;2022-09-28T08:23:01;16.85;;;4.63;;
60006;SDS011;45863;50.336;3.536;2022-09-28T08:25:26;16.55;;;4.28;;
60006;SDS011;45863;50.336;3.536;2022-09-28T08:27:53;14.47;;;4.20;;
60006;SDS011;45863;50.336;3.536;2022-09-28T08:30:20;15.65;;;4.22;;
60006;SDS011;45863;50.336;3.536;2022-09-28T08:32:45;19.38;;;4.53;;
60006;SDS011;45863;50.336;3.536;2022-09-28T08:35:13;10.88;;;3.58;;
60006;SDS011;45863;50.336;3.536;2022-09-28T08:37:38;9.88;;;3.30;;
60006;SDS011;45863;50.336;3.536;2022-09-28T08:40:03;11.93;;;3.67;;
60006;SDS011;45863;50.336;3.536;2022-09-28T08:44:55;15.27;;;4.47;;
60006;SDS011;45863;50.336;3.536;2022-09-28T08:50:23;12.48;;;4.40;;
60006;SDS011;45863;50.336;3.536;2022-09-28T08:52:52;12.90;;;3.60;;
60006;SDS011;45863;50.336;3.536;2022-09-28T08:55:25;12.38;;;3.58;;
60006;SDS011;45863;50.336;3.536;2022-09-28T09:03:22;12.27;;;3.92;;
60006;SDS011;45863;50.336;3.536;2022-09-28T09:08:41;15.50;;;4.18;;
60006;SDS011;45863;50.336;3.536;2022-09-28T09:11:20;15.85;;;4.43;;
60006;SDS011;45863;50.336;3.536;2022-09-28T09:14:21;10.32;;;4.05;;
60006;SDS011;45863;50.336;3.536;2022-09-28T09:19:20;17.60;;;3.47;;
60006;SDS011;45863;50.336;3.536;2022-09-28T09:21:50;9.18;;;3.17;;
60006;SDS011;45863;50.336;3.536;2022-09-28T09:24:25;12.85;;;4.00;;
60006;SDS011;45863;50.336;3.536;2022-09-28T09:27:03;10.40;;;3.17;;
60006;SDS011;45863;50.336;3.536;2022-09-28T09:39:48;11.10;;;3.43;;
60006;SDS011;45863;50.336;3.536;2022-09-28T09:47:28;7.03;;;2.00;;
60006;SDS011;45863;50.336;3.536;2022-09-28T09:50:28;14.57;;;2.60;;
60006;SDS011;45863;50.336;3.536;2022-09-28T09:55:21;9.02;;;2.22;;
60006;SDS011;45863;50.336;3.536;2022-09-28T10:00:33;8.95;;;2.08;;
60006;SDS011;45863;50.336;3.536;2022-09-28T10:02:59;9.65;;;1.90;;
60006;SDS011;45863;50.336;3.536;2022-09-28T10:05:28;11.43;;;2.35;;
60006;SDS011;45863;50.336;3.536;2022-09-28T10:07:55;11.43;;;2.05;;
60006;SDS011;45863;50.336;3.536;2022-09-28T10:10:25;5.78;;;2.22;;
60006;SDS011;45863;50.336;3.536;2022-09-28T10:12:51;6.70;;;1.85;;
60006;SDS011;45863;50.336;3.536;2022-09-28T10:15:19;6.80;;;2.00;;
60006;SDS011;45863;50.336;3.536;2022-09-28T10:17:46;6.75;;;2.17;;
60006;SDS011;45863;50.336;3.536;2022-09-28T10:20:12;7.63;;;2.05;;
60006;SDS011;45863;50.336;3.536;2022-09-28T10:22:38;6.10;;;2.40;;
60006;SDS011;45863;50.336;3.536;2022-09-28T10:25:04;11.18;;;2.40;;
60006;SDS011;45863;50.336;3.536;2022-09-28T10:27:30;9.88;;;2.58;;
60006;SDS011;45863;50.336;3.536;2022-09-28T10:30:02;5.07;;;1.50;;
60006;SDS011;45863;50.336;3.536;2022-09-28T10:32:35;6.72;;;1.92;;
60006;SDS011;45863;50.336;3.536;2022-09-28T10:35:10;8.13;;;2.90;;
60006;SDS011;45863;50.336;3.536;2022-09-28T10:37:45;6.25;;;1.80;;
60006;SDS011;45863;50.336;3.536;2022-09-28T10:45:38;10.77;;;2.30;;
60006;SDS011;45863;50.336;3.536;2022-09-28T10:48:03;7.17;;;1.97;;
60006;SDS011;45863;50.336;3.536;2022-09-28T10:50:30;7.18;;;2.17;;
60006;SDS011;45863;50.336;3.536;2022-09-28T10:53:17;7.78;;;1.98;;
60006;SDS011;45863;50.336;3.536;2022-09-28T10:55:40;12.52;;;2.00;;
60006;SDS011;45863;50.336;3.536;2022-09-28T10:58:23;6.80;;;1.70;;
60006;SDS011;45863;50.336;3.536;2022-09-28T11:00:48;7.78;;;1.90;;
60006;SDS011;45863;50.336;3.536;2022-09-28T11:03:26;6.57;;;1.83;;
60006;SDS011;45863;50.336;3.536;2022-09-28T11:08:23;9.35;;;1.85;;
60006;SDS011;45863;50.336;3.536;2022-09-28T11:10:49;5.88;;;1.30;;
60006;SDS011;45863;50.336;3.536;2022-09-28T11:13:24;7.15;;;1.60;;
60006;SDS011;45863;50.336;3.536;2022-09-28T11:15:49;5.75;;;1.40;;
60006;SDS011;45863;50.336;3.536;2022-09-28T11:18:19;6.82;;;1.60;;
60006;SDS011;45863;50.336;3.536;2022-09-28T11:20:48;7.65;;;2.35;;
60006;SDS011;45863;50.336;3.536;2022-09-28T11:23:21;8.60;;;2.60;;
60006;SDS011;45863;50.336;3.536;2022-09-28T11:26:00;6.55;;;2.55;;
60006;SDS011;45863;50.336;3.536;2022-09-28T11:28:30;7.43;;;2.33;;
60006;SDS011;45863;50.336;3.536;2022-09-28T11:30:57;10.25;;;1.63;;
60006;SDS011;45863;50.336;3.536;2022-09-28T11:41:13;5.05;;;1.75;;
60006;SDS011;45863;50.336;3.536;2022-09-28T11:48:54;7.27;;;1.63;;
60006;SDS011;45863;50.336;3.536;2022-09-28T11:51:31;7.53;;;2.00;;
60006;SDS011;45863;50.336;3.536;2022-09-28T11:54:00;6.70;;;2.15;;
60006;SDS011;45863;50.336;3.536;2022-09-28T11:58:56;8.93;;;3.13;;
60006;SDS011;45863;50.336;3.536;2022-09-28T12:01:26;8.60;;;2.58;;
60006;SDS011;45863;50.336;3.536;2022-09-28T12:03:56;8.00;;;2.10;;
60006;SDS011;45863;50.336;3.536;2022-09-28T12:06:32;5.75;;;1.80;;
60006;SDS011;45863;50.336;3.536;2022-09-28T12:09:03;6.68;;;2.00;;
60006;SDS011;45863;50.336;3.536;2022-09-28T12:11:32;7.20;;;1.40;;
60006;SDS011;45863;50.336;3.536;2022-09-28T12:13:59;6.50;;;1.77;;
60006;SDS011;45863;50.336;3.536;2022-09-28T12:16:27;4.05;;;1.35;;
60006;SDS011;45863;50.336;3.536;2022-09-28T12:24:04;3.70;;;1.25;;
60006;SDS011;45863;50.336;3.536;2022-09-28T12:29:15;9.38;;;1.83;;
60006;SDS011;45863;50.336;3.536;2022-09-28T12:34:26;5.25;;;1.80;;
60006;SDS011;45863;50.336;3.536;2022-09-28T12:36:56;6.67;;;1.43;;
60006;SDS011;45863;50.336;3.536;2022-09-28T12:47:14;6.07;;;1.50;;
60006;SDS011;45863;50.336;3.536;2022-09-28T13:00:20;7.40;;;1.15;;
60006;SDS011;45863;50.336;3.536;2022-09-28T13:18:30;7.40;;;1.40;;
60006;SDS011;45863;50.336;3.536;2022-09-28T13:23:45;5.38;;;1.40;;
60006;SDS011;45863;50.336;3.536;2022-09-28T13:26:21;4.50;;;1.35;;
60006;SDS011;45863;50.336;3.536;2022-09-28T13:28:50;6.45;;;1.52;;
60006;SDS011;45863;50.336;3.536;2022-09-28T13:31:19;4.18;;;1.27;;
60006;SDS011;45863;50.336;3.536;2022-09-28T13:33:46;3.17;;;0.90;;
60006;SDS011;45863;50.336;3.536;2022-09-28T13:38:48;4.50;;;1.17;;
60006;SDS011;45863;50.336;3.536;2022-09-28T13:41:15;3.55;;;0.80;;
60006;SDS011;45863;50.336;3.536;2022-09-28T13:46:21;4.93;;;1.17;;
60006;SDS011;45863;50.336;3.536;2022-09-28T13:49:04;2.88;;;1.00;;
60006;SDS011;45863;50.336;3.536;2022-09-28T13:51:47;5.30;;;1.33;;
60006;SDS011;45863;50.336;3.536;2022-09-28T13:59:24;6.25;;;1.50;;
60006;SDS011;45863;50.336;3.536;2022-09-28T14:07:23;5.03;;;1.58;;
60006;SDS011;45863;50.336;3.536;2022-09-28T14:15:12;6.67;;;2.20;;
60006;SDS011;45863;50.336;3.536;2022-09-28T14:17:51;6.55;;;2.50;;
60006;SDS011;45863;50.336;3.536;2022-09-28T14:20:18;7.65;;;3.15;;
60006;SDS011;45863;50.336;3.536;2022-09-28T14:25:24;7.43;;;2.50;;
60006;SDS011;45863;50.336;3.536;2022-09-28T14:32:55;7.37;;;1.97;;
60006;SDS011;45863;50.336;3.536;2022-09-28T14:37:54;6.18;;;1.40;;
60006;SDS011;45863;50.336;3.536;2022-09-28T14:40:57;14.40;;;2.78;;
60006;SDS011;45863;50.336;3.536;2022-09-28T14:48:48;6.85;;;1.58;;
60006;SDS011;45863;50.336;3.536;2022-09-28T14:53:48;3.72;;;1.50;;
60006;SDS011;45863;50.336;3.536;2022-09-28T14:56:14;3.15;;;1.17;;
60006;SDS011;45863;50.336;3.536;2022-09-28T14:58:40;8.52;;;1.70;;
60006;SDS011;45863;50.336;3.536;2022-09-28T15:01:06;4.75;;;1.52;;
60006;SDS011;45863;50.336;3.536;2022-09-28T15:03:36;4.78;;;1.35;;
60006;SDS011;45863;50.336;3.536;2022-09-28T15:06:04;4.60;;;1.63;;
60006;SDS011;45863;50.336;3.536;2022-09-28T15:08:36;4.75;;;1.25;;
60006;SDS011;45863;50.336;3.536;2022-09-28T15:11:02;4.20;;;1.30;;
60006;SDS011;45863;50.336;3.536;2022-09-28T15:13:27;5.37;;;1.53;;
60006;SDS011;45863;50.336;3.536;2022-09-28T15:15:56;3.85;;;1.00;;
60006;SDS011;45863;50.336;3.536;2022-09-28T15:21:08;4.53;;;1.20;;
60006;SDS011;45863;50.336;3.536;2022-09-28T15:25:59;3.25;;;1.38;;
60006;SDS011;45863;50.336;3.536;2022-09-28T15:28:25;3.22;;;1.15;;
60006;SDS011;45863;50.336;3.536;2022-09-28T15:30:50;3.93;;;1.50;;
60006;SDS011;45863;50.336;3.536;2022-09-28T15:33:28;7.20;;;1.67;;
60006;SDS011;45863;50.336;3.536;2022-09-28T15:36:25;4.97;;;1.33;;
60006;SDS011;45863;50.336;3.536;2022-09-28T15:38:56;5.32;;;1.67;;
60006;SDS011;45863;50.336;3.536;2022-09-28T15:41:22;6.05;;;1.35;;
60006;SDS011;45863;50.336;3.536;2022-09-28T15:46:33;6.22;;;1.60;;
60006;SDS011;45863;50.336;3.536;2022-09-28T15:48:59;4.03;;;1.42;;
60006;SDS011;45863;50.336;3.536;2022-09-28T15:51:26;5.97;;;1.30;;
60006;SDS011;45863;50.336;3.536;2022-09-28T15:56:17;6.90;;;1.33;;
60006;SDS011;45863;50.336;3.536;2022-09-28T15:58:43;3.60;;;1.20;;
60006;SDS011;45863;50.336;3.536;2022-09-28T16:01:30;4.38;;;1.35;;
60006;SDS011;45863;50.336;3.536;2022-09-28T16:04:06;4.93;;;1.50;;
60006;SDS011;45863;50.336;3.536;2022-09-28T16:07:03;5.38;;;1.80;;
60006;SDS011;45863;50.336;3.536;2022-09-28T16:09:31;8.52;;;2.78;;
60006;SDS011;45863;50.336;3.536;2022-09-28T16:11:57;5.07;;;1.40;;
60006;SDS011;45863;50.336;3.536;2022-09-28T16:14:23;3.88;;;1.40;;
60006;SDS011;45863;50.336;3.536;2022-09-28T16:16:49;4.60;;;1.13;;
60006;SDS011;45863;50.336;3.536;2022-09-28T16:19:22;3.90;;;1.40;;
60006;SDS011;45863;50.336;3.536;2022-09-28T16:21:49;4.63;;;1.25;;
60006;SDS011;45863;50.336;3.536;2022-09-28T16:24:52;3.90;;;1.35;;
60006;SDS011;45863;50.336;3.536;2022-09-28T16:27:08;3.28;;;1.17;;
60006;SDS011;45863;50.336;3.536;2022-09-28T16:30:00;3.25;;;1.00;;
60006;SDS011;45863;50.336;3.536;2022-09-28T16:32:34;4.87;;;1.50;;
60006;SDS011;45863;50.336;3.536;2022-09-28T16:37:34;4.82;;;1.85;;
60006;SDS011;45863;50.336;3.536;2022-09-28T16:40:00;7.47;;;1.70;;
60006;SDS011;45863;50.336;3.536;2022-09-28T16:42:25;6.80;;;1.73;;
60006;SDS011;45863;50.336;3.536;2022-09-28T16:44:51;5.15;;;1.90;;
60006;SDS011;45863;50.336;3.536;2022-09-28T16:47:17;5.18;;;1.73;;
60006;SDS011;45863;50.336;3.536;2022-09-28T16:49:42;6.18;;;1.60;;
60006;SDS011;45863;50.336;3.536;2022-09-28T16:52:09;6.93;;;2.67;;
60006;SDS011;45863;50.336;3.536;2022-09-28T16:54:35;5.95;;;2.25;;
60006;SDS011;45863;50.336;3.536;2022-09-28T16:57:19;6.10;;;1.60;;
60006;SDS011;45863;50.336;3.536;2022-09-28T16:59:44;8.65;;;3.95;;
60006;SDS011;45863;50.336;3.536;2022-09-28T17:02:14;9.00;;;4.68;;
60006;SDS011;45863;50.336;3.536;2022-09-28T17:04:40;9.57;;;4.77;;
60006;SDS011;45863;50.336;3.536;2022-09-28T17:07:06;9.15;;;5.07;;
60006;SDS011;45863;50.336;3.536;2022-09-28T17:09:32;11.10;;;4.65;;
60006;SDS011;45863;50.336;3.536;2022-09-28T17:11:58;7.35;;;2.60;;
60006;SDS011;45863;50.336;3.536;2022-09-28T17:14:24;7.45;;;4.00;;
60006;SDS011;45863;50.336;3.536;2022-09-28T17:16:50;8.57;;;2.90;;
60006;SDS011;45863;50.336;3.536;2022-09-28T17:19:23;7.38;;;3.58;;
60006;SDS011;45863;50.336;3.536;2022-09-28T17:21:50;12.73;;;4.57;;
60006;SDS011;45863;50.336;3.536;2022-09-28T17:24:15;10.68;;;5.55;;
60006;SDS011;45863;50.336;3.536;2022-09-28T17:26:41;8.65;;;3.83;;
60006;SDS011;45863;50.336;3.536;2022-09-28T17:29:09;11.50;;;4.55;;
60006;SDS011;45863;50.336;3.536;2022-09-28T17:31:38;9.82;;;3.45;;
60006;SDS011;45863;50.336;3.536;2022-09-28T17:34:03;7.10;;;2.85;;
60006;SDS011;45863;50.336;3.536;2022-09-28T17:36:29;8.23;;;2.70;;
60006;SDS011;45863;50.336;3.536;2022-09-28T17:38:54;12.25;;;2.97;;
60006;SDS011;45863;50.336;3.536;2022-09-28T17:41:21;8.93;;;3.13;;
60006;SDS011;45863;50.336;3.536;2022-09-28T17:43:46;10.60;;;3.80;;
60006;SDS011;45863;50.336;3.536;2022-09-28T17:46:16;8.38;;;3.33;;
60006;SDS011;45863;50.336;3.536;2022-09-28T17:48:44;11.82;;;4.90;;
60006;SDS011;45863;50.336;3.536;2022-09-28T17:51:11;8.88;;;3.75;;
60006;SDS011;45863;50.336;3.536;2022-09-28T17:53:37;8.80;;;3.50;;
60006;SDS011;45863;50.336;3.536;2022-09-28T17:56:02;7.15;;;2.30;;
60006;SDS011;45863;50.336;3.536;2022-09-28T17:58:27;7.53;;;2.47;;
60006;SDS011;45863;50.336;3.536;2022-09-28T18:00:53;9.40;;;3.05;;
60006;SDS011;45863;50.336;3.536;2022-09-28T18:03:22;5.97;;;3.13;;
60006;SDS011;45863;50.336;3.536;2022-09-28T18:05:49;10.38;;;4.05;;
60006;SDS011;45863;50.336;3.536;2022-09-28T18:08:18;13.18;;;5.38;;
60006;SDS011;45863;50.336;3.536;2022-09-28T18:10:44;11.05;;;5.30;;